Time;durP1;ratioP1;P1;durP2;ratioP2;P2;SDS_P1;SDS_P2;PMS_P1;PMS_P2;Temp;Humidity;BMP_temperature;BMP_pressure;BME280_temperature;BME280_humidity;BME280_pressure;Samples;Min_cycle;Max_cycle;Signal;HPM_P1;HPM_P2
2022/06/16 00:01:58;;;;;;;10.07;2.22;;;25.80;75.30;;;;;;4879671;29;20439;-81
2022/06/16 00:04:25;;;;;;;9.30;2.65;;;25.90;75.20;;;;;;4877497;29;20037;-80
2022/06/16 00:06:51;;;;;;;7.10;2.00;;;25.80;75.60;;;;;;4879291;29;20112;-80
2022/06/16 00:09:17;;;;;;;6.35;2.33;;;25.70;75.80;;;;;;4879586;29;20064;-81
2022/06/16 00:11:43;;;;;;;4.50;1.77;;;25.70;76.50;;;;;;4878680;29;20032;-80
2022/06/16 00:14:10;;;;;;;5.97;2.17;;;25.60;76.40;;;;;;4879178;29;20445;-81
2022/06/16 00:16:36;;;;;;;7.95;2.55;;;25.50;76.00;;;;;;4878737;29;20024;-80
2022/06/16 00:19:02;;;;;;;7.43;2.20;;;25.30;76.70;;;;;;4878401;29;20032;-80
2022/06/16 00:21:27;;;;;;;6.75;2.25;;;25.10;77.60;;;;;;4879209;29;20036;-80
2022/06/16 00:23:53;;;;;;;5.78;2.45;;;25.20;77.30;;;;;;4879340;29;20025;-81
2022/06/16 00:26:25;;;;;;;5.68;2.65;;;25.50;78.00;;;;;;4878307;29;20127;-79
2022/06/16 00:28:52;;;;;;;6.55;2.20;;;25.40;78.50;;;;;;4878820;29;20029;-80
2022/06/16 00:31:21;;;;;;;8.30;2.17;;;25.40;78.20;;;;;;4877203;29;20032;-81
2022/06/16 00:33:47;;;;;;;8.98;2.53;;;25.40;77.90;;;;;;4860176;29;20045;-80
2022/06/16 00:36:13;;;;;;;10.32;2.47;;;25.40;78.00;;;;;;4867175;29;20029;-80
2022/06/16 00:38:39;;;;;;;6.47;2.55;;;25.40;78.10;;;;;;4878375;29;20025;-81
2022/06/16 00:41:06;;;;;;;7.63;2.35;;;25.40;78.90;;;;;;4878322;29;20018;-81
2022/06/16 00:43:32;;;;;;;6.82;2.45;;;25.30;79.60;;;;;;4877845;29;20370;-80
2022/06/16 00:46:04;;;;;;;6.93;2.65;;;25.20;79.60;;;;;;4877112;29;20450;-81
2022/06/16 00:48:45;;;;;;;6.85;2.10;;;25.20;78.90;;;;;;4878810;29;20089;-81
2022/06/16 00:51:32;;;;;;;12.77;2.10;;;25.20;79.10;;;;;;4878545;29;20029;-81
2022/06/16 00:54:24;;;;;;;6.32;2.33;;;25.10;79.60;;;;;;4876080;29;20045;-81
2022/06/16 00:56:52;;;;;;;6.70;2.28;;;25.10;79.40;;;;;;4877760;29;20068;-81
2022/06/16 00:59:20;;;;;;;7.35;3.50;;;25.10;79.50;;;;;;4878504;29;20036;-81
2022/06/16 01:01:47;;;;;;;16.65;6.85;;;25.10;79.40;;;;;;4878436;29;20123;-81
2022/06/16 01:07:00;;;;;;;8.75;3.97;;;25.00;79.10;;;;;;4877638;29;20108;-80
2022/06/16 01:09:31;;;;;;;4.38;2.17;;;24.90;79.80;;;;;;4878238;29;20039;-81
2022/06/16 01:15:20;;;;;;;13.43;4.97;;;25.10;78.90;;;;;;4878476;29;20125;-80
2022/06/16 01:17:56;;;;;;;10.45;4.47;;;24.90;79.40;;;;;;4878264;29;20104;-81
2022/06/16 01:20:40;;;;;;;6.30;2.72;;;24.90;80.10;;;;;;4878054;29;20048;-81
2022/06/16 01:23:34;;;;;;;8.30;2.60;;;24.70;79.80;;;;;;4876944;29;20063;-81
2022/06/16 01:26:17;;;;;;;5.00;2.17;;;24.70;80.40;;;;;;4870614;29;20073;-80
2022/06/16 01:29:13;;;;;;;8.75;2.38;;;24.80;80.80;;;;;;4868846;29;20032;-81
2022/06/16 01:31:42;;;;;;;10.88;3.05;;;24.60;81.30;;;;;;4878226;29;20536;-81
2022/06/16 01:34:14;;;;;;;9.77;2.83;;;24.60;81.80;;;;;;4877294;29;20100;-81
2022/06/16 01:36:54;;;;;;;8.55;2.70;;;24.70;81.30;;;;;;4878541;29;20025;-80
2022/06/16 01:39:25;;;;;;;6.47;2.38;;;24.70;81.70;;;;;;4877890;29;20101;-81
2022/06/16 01:41:59;;;;;;;7.20;3.00;;;24.60;81.90;;;;;;4878210;29;20107;-81
2022/06/16 01:44:36;;;;;;;6.43;2.88;;;24.50;82.00;;;;;;4878202;29;20029;-81
2022/06/16 01:47:08;;;;;;;5.97;3.33;;;24.50;82.40;;;;;;4878122;29;20478;-81
2022/06/16 01:49:40;;;;;;;10.40;3.45;;;24.50;82.50;;;;;;4878030;29;20072;-81
2022/06/16 01:52:12;;;;;;;;;;;24.40;83.00;;;;;;4878524;29;20067;-81
2022/06/16 01:54:43;;;;;;;9.18;3.70;;;24.40;83.10;;;;;;4876378;29;19915;-81
2022/06/16 01:57:17;;;;;;;11.73;3.65;;;24.50;83.40;;;;;;4877773;29;20541;-80
2022/06/16 02:00:13;;;;;;;9.20;3.30;;;24.30;83.30;;;;;;4878313;29;20049;-80
2022/06/16 02:02:41;;;;;;;8.27;3.45;;;24.30;84.10;;;;;;4878016;29;20434;-81
2022/06/16 02:05:20;;;;;;;9.30;3.22;;;24.30;84.10;;;;;;4877863;29;20025;-81
2022/06/16 02:07:59;;;;;;;7.80;2.88;;;24.30;84.00;;;;;;4876533;29;20464;-81
2022/06/16 02:10:32;;;;;;;8.45;2.45;;;24.30;84.80;;;;;;4877995;29;20037;-80
2022/06/16 02:12:59;;;;;;;7.00;2.90;;;24.20;84.70;;;;;;4877764;29;20036;-81
2022/06/16 02:15:38;;;;;;;8.85;2.50;;;24.20;84.80;;;;;;4876762;29;20528;-81
2022/06/16 02:18:10;;;;;;;11.05;3.03;;;24.10;85.10;;;;;;4877702;29;20025;-81
2022/06/16 02:20:44;;;;;;;7.28;3.20;;;24.20;85.30;;;;;;4877554;29;20041;-81
2022/06/16 02:23:10;;;;;;;7.68;2.65;;;24.20;85.20;;;;;;4877172;29;20033;-81
2022/06/16 02:25:36;;;;;;;12.13;2.95;;;24.10;85.80;;;;;;4877547;29;20049;-80
2022/06/16 02:28:02;;;;;;;7.93;2.78;;;24.10;85.30;;;;;;4879244;29;20029;-80
2022/06/16 02:30:31;;;;;;;7.43;3.08;;;24.00;85.40;;;;;;4881078;29;20040;-81
2022/06/16 02:32:57;;;;;;;7.88;2.35;;;24.10;85.40;;;;;;4881086;29;20060;-80
2022/06/16 02:35:50;;;;;;;8.63;2.75;;;24.10;85.40;;;;;;4880314;29;20041;-81
2022/06/16 02:38:27;;;;;;;8.82;3.17;;;24.10;85.80;;;;;;4880679;29;20022;-80
2022/06/16 02:41:08;;;;;;;10.43;3.08;;;24.10;86.00;;;;;;4880847;29;20033;-81
2022/06/16 02:44:03;;;;;;;8.82;3.25;;;23.90;86.40;;;;;;4880940;29;20037;-81
2022/06/16 02:46:58;;;;;;;7.32;2.85;;;23.90;86.40;;;;;;4880878;29;20037;-80
2022/06/16 02:49:35;;;;;;;11.20;3.13;;;23.90;86.90;;;;;;4841161;29;20422;-81
2022/06/16 02:52:06;;;;;;;10.40;3.33;;;23.90;87.10;;;;;;4841432;29;20042;-81
2022/06/16 02:54:36;;;;;;;12.23;3.00;;;23.80;87.60;;;;;;4841720;29;20038;-80
2022/06/16 02:57:21;;;;;;;13.82;3.20;;;23.70;87.70;;;;;;4841868;29;20067;-80
2022/06/16 02:59:51;;;;;;;11.32;2.95;;;23.70;88.20;;;;;;4841565;29;20038;-80
2022/06/16 03:02:22;;;;;;;8.43;2.60;;;23.60;88.90;;;;;;4825321;29;20044;-81
2022/06/16 03:04:56;;;;;;;7.25;2.72;;;23.70;88.70;;;;;;4841066;29;20406;-81
2022/06/16 03:07:22;;;;;;;7.82;2.28;;;23.60;88.60;;;;;;4841291;29;20463;-81
2022/06/16 03:09:48;;;;;;;7.78;2.63;;;23.60;88.50;;;;;;4841311;29;20045;-81
2022/06/16 03:12:15;;;;;;;6.88;2.67;;;23.60;88.60;;;;;;4841239;29;20038;-81
2022/06/16 03:14:42;;;;;;;8.38;2.47;;;23.60;89.30;;;;;;4841581;29;20498;-81
2022/06/16 03:17:10;;;;;;;5.97;2.58;;;23.60;88.40;;;;;;4841183;29;20178;-81
2022/06/16 03:19:36;;;;;;;6.78;2.63;;;23.60;89.30;;;;;;4840980;29;20553;-81
2022/06/16 03:22:03;;;;;;;6.53;2.50;;;23.50;88.80;;;;;;4825688;29;20061;-80
2022/06/16 03:24:29;;;;;;;7.65;2.40;;;23.40;89.60;;;;;;4841053;29;20045;-81
2022/06/16 03:26:55;;;;;;;6.93;2.40;;;23.40;89.20;;;;;;4870028;29;20445;-81
2022/06/16 03:29:21;;;;;;;18.10;2.80;;;23.30;88.90;;;;;;4879687;29;20025;-81
2022/06/16 03:31:46;;;;;;;10.50;3.20;;;23.30;89.10;;;;;;4880191;29;20041;-81
2022/06/16 03:34:12;;;;;;;9.90;2.67;;;23.40;89.90;;;;;;4879637;29;20459;-81
2022/06/16 03:36:38;;;;;;;11.75;3.08;;;23.30;89.50;;;;;;4880032;29;20033;-81
2022/06/16 03:39:05;;;;;;;5.72;2.38;;;23.30;90.10;;;;;;4879135;29;20029;-81
2022/06/16 03:41:32;;;;;;;8.85;2.80;;;23.40;89.70;;;;;;4879733;29;20029;-81
2022/06/16 03:43:58;;;;;;;6.82;2.95;;;23.30;90.00;;;;;;4879616;29;20028;-81
2022/06/16 03:46:24;;;;;;;10.23;2.97;;;23.30;90.20;;;;;;4878454;29;20401;-81
2022/06/16 03:48:50;;;;;;;7.47;2.55;;;23.30;90.30;;;;;;4860659;29;20033;-81
2022/06/16 03:51:16;;;;;;;6.82;2.72;;;23.30;90.40;;;;;;4861451;29;20033;-81
2022/06/16 03:53:42;;;;;;;10.48;3.40;;;23.30;90.60;;;;;;4860964;29;20064;-81
2022/06/16 03:56:09;;;;;;;6.03;2.67;;;23.20;91.00;;;;;;4869829;29;20437;-81
2022/06/16 03:58:35;;;;;;;10.38;2.80;;;23.20;90.90;;;;;;4879752;29;20104;-81
2022/06/16 04:01:01;;;;;;;7.28;2.78;;;23.30;90.70;;;;;;4879986;29;20089;-81
2022/06/16 04:06:11;;;;;;;11.40;3.20;;;23.20;91.10;;;;;;4879578;29;20510;-80
2022/06/16 04:08:38;;;;;;;11.73;3.08;;;23.10;91.20;;;;;;4879958;29;20064;-80
2022/06/16 04:11:26;;;;;;;7.55;3.08;;;23.20;91.60;;;;;;4878000;29;20466;-80
2022/06/16 04:13:52;;;;;;;7.97;2.75;;;23.10;91.60;;;;;;4879302;29;20041;-83
2022/06/16 04:16:18;;;;;;;10.40;3.53;;;23.10;91.70;;;;;;4879131;29;20028;-79
2022/06/16 04:18:43;;;;;;;9.18;2.88;;;23.00;91.70;;;;;;4877962;29;20025;-79
2022/06/16 04:21:10;;;;;;;13.82;3.42;;;23.10;91.60;;;;;;4877887;29;20461;-79
2022/06/16 04:23:36;;;;;;;10.82;3.53;;;23.10;92.00;;;;;;4878811;29;20458;-78
2022/06/16 04:26:02;;;;;;;12.02;3.88;;;23.00;92.40;;;;;;4878660;29;20471;-81
2022/06/16 04:28:28;;;;;;;11.20;3.67;;;23.00;92.20;;;;;;4879198;29;20103;-80
2022/06/16 04:30:54;;;;;;;7.95;3.40;;;23.00;92.50;;;;;;4879471;29;20106;-80
2022/06/16 04:33:20;;;;;;;10.70;3.20;;;23.00;92.70;;;;;;4878076;29;20033;-80
2022/06/16 04:35:45;;;;;;;8.63;3.50;;;23.00;92.70;;;;;;4877844;29;20029;-80
2022/06/16 04:38:11;;;;;;;13.70;3.30;;;23.00;92.80;;;;;;4877868;29;20018;-78
2022/06/16 04:40:37;;;;;;;12.02;3.60;;;23.00;92.70;;;;;;4877995;29;20025;-80
2022/06/16 04:43:03;;;;;;;7.72;2.90;;;23.00;92.90;;;;;;4878378;29;20101;-80
2022/06/16 04:45:29;;;;;;;8.25;3.05;;;22.90;93.20;;;;;;4877603;29;20565;-79
2022/06/16 04:47:55;;;;;;;9.80;2.88;;;22.90;93.30;;;;;;4877730;29;20032;-82
2022/06/16 04:50:21;;;;;;;8.20;3.15;;;22.90;93.20;;;;;;4877602;29;20524;-80
2022/06/16 04:52:47;;;;;;;7.28;3.10;;;23.00;93.40;;;;;;4876447;29;20056;-77
2022/06/16 04:55:14;;;;;;;12.65;3.28;;;23.00;93.20;;;;;;4878418;29;20044;-77
2022/06/16 04:57:40;;;;;;;8.93;3.17;;;23.00;93.50;;;;;;4878461;29;20033;-80
2022/06/16 05:00:10;;;;;;;11.30;3.28;;;23.00;93.60;;;;;;4878573;29;20021;-80
2022/06/16 05:02:36;;;;;;;6.45;2.83;;;23.10;93.40;;;;;;4877177;29;20028;-80
2022/06/16 05:05:02;;;;;;;5.60;2.80;;;23.10;93.70;;;;;;4878142;29;20047;-79
2022/06/16 05:07:28;;;;;;;9.05;3.53;;;23.10;93.60;;;;;;4878662;29;20056;-79
2022/06/16 05:09:54;;;;;;;10.00;3.10;;;23.10;93.90;;;;;;4878434;29;20077;-79
2022/06/16 05:12:19;;;;;;;18.63;3.15;;;23.10;94.00;;;;;;4878247;29;20029;-79
2022/06/16 05:14:45;;;;;;;8.70;3.10;;;23.00;94.20;;;;;;4878212;29;20084;-79
2022/06/16 05:17:11;;;;;;;10.38;3.42;;;23.10;94.40;;;;;;4861399;29;20029;-79
2022/06/16 05:19:36;;;;;;;10.48;3.60;;;23.10;94.60;;;;;;4861930;29;20077;-79
2022/06/16 05:22:05;;;;;;;8.23;3.55;;;23.10;94.80;;;;;;4877177;29;20021;-79
2022/06/16 05:24:31;;;;;;;12.32;3.80;;;23.20;95.10;;;;;;4877453;29;20060;-79
2022/06/16 05:26:57;;;;;;;8.98;3.75;;;23.30;95.20;;;;;;4877677;29;20057;-80
2022/06/16 05:29:23;;;;;;;7.90;3.28;;;23.30;95.20;;;;;;4873866;29;20036;-79
2022/06/16 05:31:49;;;;;;;13.57;3.65;;;23.30;94.80;;;;;;4877635;29;20039;-76
2022/06/16 05:34:15;;;;;;;10.43;3.65;;;23.20;94.90;;;;;;4877834;29;20025;-76
2022/06/16 05:36:43;;;;;;;16.02;4.03;;;23.20;94.80;;;;;;4877179;29;20142;-77
2022/06/16 05:39:09;;;;;;;11.68;3.30;;;23.00;94.50;;;;;;4878277;29;20458;-77
2022/06/16 05:41:35;;;;;;;8.35;3.53;;;23.10;94.20;;;;;;4878892;29;20061;-77
2022/06/16 05:44:00;;;;;;;22.92;3.85;;;23.20;94.20;;;;;;4877776;29;20040;-77
2022/06/16 05:46:27;;;;;;;12.90;3.50;;;23.30;94.10;;;;;;4876510;29;20069;-77
2022/06/16 05:48:53;;;;;;;9.48;3.40;;;23.40;94.70;;;;;;4874625;29;20033;-77
2022/06/16 05:51:19;;;;;;;9.82;3.03;;;23.40;94.10;;;;;;4866497;29;20085;-77
2022/06/16 05:53:45;;;;;;;8.05;3.47;;;23.40;93.30;;;;;;4878051;29;20466;-78
2022/06/16 05:56:12;;;;;;;10.20;3.28;;;23.40;92.80;;;;;;4878266;29;20021;-77
2022/06/16 05:58:38;;;;;;;9.45;3.30;;;23.40;93.10;;;;;;4877759;29;20029;-77
2022/06/16 06:01:04;;;;;;;9.45;3.20;;;23.20;93.20;;;;;;4875024;29;20021;-77
2022/06/16 06:03:30;;;;;;;11.27;3.28;;;23.20;93.60;;;;;;4879745;29;20081;-78
2022/06/16 06:05:58;;;;;;;10.25;3.17;;;23.20;93.30;;;;;;4881595;29;20501;-77
2022/06/16 10:06:58;;;;;;;13.93;4.10;;;34.60;57.40;;;;;;4949645;24;20087;-79
2022/06/16 10:10:06;;;;;;;15.98;4.57;;;34.80;58.40;;;;;;4895761;29;20044;-79
2022/06/16 10:12:53;;;;;;;13.77;4.72;;;34.80;57.70;;;;;;4836539;29;20035;-81
2022/06/16 10:15:24;;;;;;;15.95;4.43;;;34.60;57.40;;;;;;4823329;29;20102;-79
2022/06/16 10:17:53;;;;;;;19.92;4.63;;;34.40;58.80;;;;;;4823730;29;20027;-78
2022/06/16 10:20:21;;;;;;;14.18;4.13;;;34.70;57.90;;;;;;4823509;29;20141;-79
2022/06/16 10:22:52;;;;;;;11.45;4.25;;;34.80;57.90;;;;;;4822705;29;20042;-79
2022/06/16 16:05:57;;;;;;;16.52;4.03;;;37.10;39.10;;;;;;5727278;23;20061;-75
2022/06/16 16:08:28;;;;;;;17.90;4.30;;;37.10;38.80;;;;;;4872224;29;20442;-77
2022/06/16 16:10:57;;;;;;;14.57;3.83;;;36.70;38.50;;;;;;4861272;29;20116;-78
2022/06/16 16:13:23;;;;;;;21.25;4.80;;;36.70;39.20;;;;;;4861165;29;20029;-78
2022/06/16 16:16:14;;;;;;;13.55;4.35;;;36.70;39.30;;;;;;4860951;29;20054;-78
2022/06/16 16:18:40;;;;;;;12.00;3.38;;;36.70;38.40;;;;;;4861448;29;20030;-78
2022/06/16 16:21:07;;;;;;;18.80;3.95;;;36.60;39.20;;;;;;4860741;29;20423;-78
2022/06/16 16:23:46;;;;;;;13.02;3.90;;;36.70;39.20;;;;;;4860394;29;20562;-78
2022/06/16 16:26:12;;;;;;;11.70;3.70;;;36.70;39.80;;;;;;4861272;29;20086;-78
2022/06/16 16:29:03;;;;;;;17.00;3.80;;;36.70;39.70;;;;;;4860752;29;20044;-78
2022/06/16 16:31:38;;;;;;;14.50;3.78;;;36.50;38.80;;;;;;4864557;29;20037;-76
2022/06/16 16:34:07;;;;;;;17.90;4.38;;;36.50;39.30;;;;;;4870003;29;20097;-78
2022/06/16 16:36:36;;;;;;;23.30;4.30;;;36.50;39.30;;;;;;4859320;29;20398;-78
2022/06/16 16:39:20;;;;;;;11.90;3.65;;;36.50;40.70;;;;;;4859875;29;20037;-78
2022/06/16 16:44:44;;;;;;;14.52;3.60;;;36.30;41.00;;;;;;4859788;29;20041;-79
2022/06/16 16:47:12;;;;;;;23.55;4.28;;;36.20;41.10;;;;;;4859478;29;20030;-80
2022/06/16 16:49:47;;;;;;;15.45;4.60;;;36.20;40.60;;;;;;4859322;29;20387;-79
2022/06/16 16:52:14;;;;;;;18.35;4.20;;;36.00;40.70;;;;;;4859368;29;20025;-79
2022/06/16 16:54:40;;;;;;;14.30;4.00;;;36.00;41.30;;;;;;4859085;29;20402;-79
2022/06/16 16:57:09;;;;;;;16.27;4.40;;;35.90;40.90;;;;;;4859823;29;20022;-79
2022/06/16 16:59:35;;;;;;;15.10;3.88;;;35.90;42.10;;;;;;4859951;29;20034;-82
2022/06/16 17:02:00;;;;;;;13.93;4.03;;;35.90;42.70;;;;;;4860157;29;20014;-81
2022/06/16 17:04:26;;;;;;;13.13;4.15;;;35.80;42.00;;;;;;4863085;29;20481;-81
2022/06/16 17:06:53;;;;;;;14.85;4.15;;;35.70;39.90;;;;;;4859015;29;20045;-79
2022/06/16 17:09:19;;;;;;;11.20;3.70;;;35.80;40.40;;;;;;4860036;29;20068;-80
2022/06/16 17:11:51;;;;;;;17.33;5.03;;;35.70;40.40;;;;;;4859556;29;20085;-80
2022/06/16 17:14:27;;;;;;;16.42;4.22;;;35.70;40.30;;;;;;4860363;29;20034;-80
2022/06/16 17:16:54;;;;;;;14.98;4.10;;;35.60;41.10;;;;;;4857259;29;20025;-82
2022/06/16 17:19:22;;;;;;;19.23;3.92;;;35.30;40.10;;;;;;4853243;29;20082;-80
2022/06/16 17:21:48;;;;;;;15.65;3.28;;;35.40;39.60;;;;;;4857921;29;20447;-80
2022/06/16 17:24:18;;;;;;;16.25;3.95;;;35.20;38.80;;;;;;4857254;29;20060;-79
2022/06/16 17:26:43;;;;;;;11.55;4.00;;;35.20;39.80;;;;;;4858523;29;20021;-79
2022/06/16 17:29:09;;;;;;;17.55;4.07;;;35.10;40.40;;;;;;4858521;29;20169;-79
2022/06/16 17:31:37;;;;;;;14.85;3.58;;;35.00;40.40;;;;;;4859099;29;20421;-83
2022/06/16 17:34:04;;;;;;;15.52;3.92;;;34.90;39.50;;;;;;4861150;29;20041;-81
2022/06/16 17:36:30;;;;;;;15.10;4.72;;;35.00;39.60;;;;;;4859922;29;20093;-79
2022/06/16 17:38:55;;;;;;;15.98;4.07;;;35.00;40.30;;;;;;4858178;29;20691;-82
2022/06/16 17:41:23;;;;;;;15.48;4.88;;;35.00;40.50;;;;;;4859193;29;20021;-82
2022/06/16 17:43:49;;;;;;;16.38;3.60;;;35.00;40.10;;;;;;4858421;29;20029;-82
2022/06/16 17:46:16;;;;;;;17.23;4.07;;;35.00;41.10;;;;;;4859120;29;20084;-81
2022/06/16 17:48:42;;;;;;;18.25;3.83;;;35.00;41.20;;;;;;4857983;29;20029;-80
2022/06/16 17:51:15;;;;;;;15.95;4.13;;;35.00;41.10;;;;;;4858508;29;20041;-81
2022/06/16 18:01:38;;;;;;;12.23;3.47;;;35.00;40.70;;;;;;4859518;29;20878;-81
2022/06/16 18:04:04;;;;;;;13.23;3.60;;;34.90;41.00;;;;;;4863654;29;20394;-79
2022/06/16 18:06:30;;;;;;;14.88;4.28;;;34.90;41.00;;;;;;4861979;29;20057;-79
2022/06/16 18:08:56;;;;;;;18.27;3.85;;;34.80;43.40;;;;;;4862752;29;20029;-79
2022/06/16 18:11:23;;;;;;;22.58;5.25;;;34.80;41.80;;;;;;4861977;29;20041;-78
2022/06/16 18:13:53;;;;;;;11.27;3.55;;;34.80;41.90;;;;;;4861198;29;20120;-81
2022/06/16 18:16:20;;;;;;;18.88;4.03;;;34.70;42.50;;;;;;4859147;29;20037;-84
2022/06/16 18:18:50;;;;;;;18.65;4.80;;;34.60;42.70;;;;;;4861528;29;20026;-84
2022/06/16 18:21:37;;;;;;;12.30;3.63;;;34.60;43.90;;;;;;4860422;29;20022;-81
2022/06/16 18:24:06;;;;;;;16.55;4.25;;;34.60;44.40;;;;;;4860446;29;20037;-82
2022/06/16 18:26:39;;;;;;;23.20;3.97;;;34.50;44.30;;;;;;4856548;29;20014;-82
2022/06/16 18:29:04;;;;;;;19.52;3.60;;;34.40;44.40;;;;;;4856095;29;20030;-82
2022/06/16 18:31:31;;;;;;;19.55;4.75;;;34.40;44.60;;;;;;4860367;29;20021;-83
2022/06/16 18:33:57;;;;;;;13.30;3.95;;;34.30;45.30;;;;;;4861482;29;20018;-84
2022/06/16 18:36:23;;;;;;;18.00;4.07;;;34.20;46.20;;;;;;4860955;29;20078;-79
2022/06/16 18:38:49;;;;;;;15.95;3.17;;;34.10;46.10;;;;;;4862320;29;20100;-88
2022/06/16 18:41:17;;;;;;;18.58;4.22;;;34.00;46.40;;;;;;4861993;29;20025;-82
2022/06/16 18:43:44;;;;;;;13.70;3.38;;;33.90;46.30;;;;;;4861712;29;20049;-82
2022/06/16 18:46:18;;;;;;;15.45;4.03;;;33.90;46.30;;;;;;4861803;29;20029;-82
2022/06/16 18:48:45;;;;;;;14.77;3.33;;;33.80;47.20;;;;;;4861021;29;20030;-82
2022/06/16 18:51:23;;;;;;;18.42;3.85;;;33.70;47.70;;;;;;4861632;29;20068;-82
2022/06/16 18:53:49;;;;;;;11.50;3.03;;;33.70;48.40;;;;;;4858976;29;20360;-82
2022/06/16 18:56:16;;;;;;;15.45;3.72;;;33.50;48.10;;;;;;4861387;29;20501;-81
2022/06/16 18:58:41;;;;;;;16.10;3.80;;;33.40;47.60;;;;;;4861245;29;20061;-81
2022/06/16 19:01:15;;;;;;;11.30;3.17;;;33.30;47.80;;;;;;4861844;29;20030;-85
2022/06/16 19:03:47;;;;;;;17.63;3.83;;;33.30;47.50;;;;;;4861562;29;20158;-82
2022/06/16 19:06:14;;;;;;;16.65;3.78;;;33.20;49.10;;;;;;4861255;29;20057;-82
2022/06/16 19:08:41;;;;;;;12.27;3.65;;;33.10;48.30;;;;;;4857852;29;20025;-83
2022/06/16 19:11:06;;;;;;;10.40;3.33;;;33.00;48.90;;;;;;4861197;29;20030;-82
2022/06/16 19:13:33;;;;;;;12.57;3.72;;;32.90;49.20;;;;;;4861376;29;20514;-85
2022/06/16 19:16:02;;;;;;;13.77;3.00;;;32.80;48.60;;;;;;4862167;29;20430;-81
2022/06/16 19:18:31;;;;;;;17.90;3.85;;;32.70;49.50;;;;;;4861740;29;20026;-79
2022/06/16 19:21:05;;;;;;;9.98;3.10;;;32.70;48.40;;;;;;4861286;29;20486;-78
2022/06/16 19:23:38;;;;;;;10.57;3.90;;;32.60;48.20;;;;;;4861229;29;20389;-78
2022/06/16 19:26:11;;;;;;;10.48;3.13;;;32.50;49.70;;;;;;4875821;29;20790;-79
2022/06/16 19:28:37;;;;;;;14.80;3.63;;;32.40;50.80;;;;;;4857356;29;20432;-79
2022/06/16 19:31:02;;;;;;;11.98;2.80;;;32.30;50.50;;;;;;4856737;29;20041;-79
2022/06/16 19:33:28;;;;;;;15.32;3.22;;;32.20;50.00;;;;;;4857936;29;20033;-79
2022/06/16 19:35:55;;;;;;;9.07;3.00;;;32.10;49.40;;;;;;4860168;29;20030;-77
2022/06/16 19:39:01;;;;;;;16.98;3.58;;;32.10;49.90;;;;;;4861146;29;20049;-79
2022/06/16 19:41:29;;;;;;;13.27;3.90;;;32.00;50.30;;;;;;4855825;29;20052;-79
2022/06/16 19:52:18;;;;;;;12.40;3.30;;;31.30;54.70;;;;;;4867177;29;20504;-79
2022/06/16 19:54:44;;;;;;;11.65;3.58;;;31.30;54.60;;;;;;4859659;29;20482;-78
2022/06/16 19:57:11;;;;;;;12.20;4.10;;;31.20;54.90;;;;;;4861966;29;20040;-78
2022/06/16 19:59:38;;;;;;;16.00;3.38;;;31.10;55.20;;;;;;4860122;29;20021;-77
2022/06/16 20:02:05;;;;;;;19.00;3.95;;;31.00;55.70;;;;;;4860191;29;20030;-78
2022/06/16 20:04:35;;;;;;;13.65;3.92;;;30.80;55.40;;;;;;4860514;29;20033;-79
2022/06/16 20:07:01;;;;;;;16.60;4.90;;;30.80;57.60;;;;;;4860508;29;20094;-79
2022/06/16 20:09:28;;;;;;;13.82;3.63;;;30.70;59.70;;;;;;4859638;29;20045;-79
2022/06/16 20:11:54;;;;;;;12.93;3.80;;;30.60;57.40;;;;;;4861662;29;20491;-78
2022/06/16 20:14:21;;;;;;;12.88;3.85;;;30.50;58.40;;;;;;4855521;29;20037;-78
2022/06/16 20:16:47;;;;;;;15.88;4.13;;;30.50;58.70;;;;;;4863743;29;20453;-79
2022/06/16 20:19:13;;;;;;;9.02;3.60;;;30.40;58.50;;;;;;4860337;29;20057;-79
2022/06/16 20:21:40;;;;;;;8.48;3.25;;;30.40;58.80;;;;;;4861834;29;20482;-79
2022/06/16 20:24:06;;;;;;;11.75;3.38;;;30.40;58.10;;;;;;4866261;29;20096;-79
2022/06/16 20:26:32;;;;;;;13.65;3.80;;;30.30;57.70;;;;;;4861055;29;20055;-79
2022/06/16 20:28:58;;;;;;;12.80;3.17;;;30.30;58.50;;;;;;4860309;29;20078;-79
2022/06/16 20:31:25;;;;;;;10.23;3.60;;;30.20;58.70;;;;;;4862178;29;20116;-78
2022/06/16 20:33:51;;;;;;;11.30;3.50;;;30.00;59.90;;;;;;4878609;29;20024;-79
2022/06/16 20:36:20;;;;;;;11.63;3.60;;;30.00;60.70;;;;;;4879395;29;20374;-78
2022/06/16 20:38:46;;;;;;;8.85;3.17;;;29.90;60.10;;;;;;4878911;29;20100;-79
2022/06/16 20:44:07;;;;;;;10.38;3.63;;;29.80;58.00;;;;;;4878803;29;20057;-77
2022/06/16 20:46:35;;;;;;;20.15;4.05;;;29.80;59.50;;;;;;4873388;29;20034;-78
2022/06/16 20:49:01;;;;;;;14.13;3.40;;;29.80;63.40;;;;;;4860152;29;20022;-78
2022/06/16 20:51:27;;;;;;;18.77;3.75;;;29.70;62.00;;;;;;4860306;29;20085;-78
2022/06/16 20:53:53;;;;;;;12.38;3.72;;;29.60;63.10;;;;;;4860238;29;20024;-79
2022/06/16 20:56:21;;;;;;;14.25;3.70;;;29.60;62.90;;;;;;4860226;29;20030;-79
2022/06/16 21:04:18;;;;;;;15.75;3.72;;;29.40;63.90;;;;;;4878896;29;20083;-80
2022/06/16 21:06:44;;;;;;;12.68;3.53;;;29.30;63.40;;;;;;4865465;29;20080;-79
2022/06/16 21:09:11;;;;;;;18.17;4.03;;;29.30;62.20;;;;;;4859938;29;20029;-79
2022/06/16 21:14:23;;;;;;;15.85;4.18;;;29.20;64.30;;;;;;4877989;29;20036;-79
2022/06/16 21:16:49;;;;;;;23.15;4.47;;;29.20;64.50;;;;;;4878237;29;20453;-79
2022/06/16 21:19:15;;;;;;;14.02;4.47;;;29.20;65.50;;;;;;4878303;29;20076;-80
2022/06/16 21:21:41;;;;;;;13.82;4.53;;;29.10;66.30;;;;;;4878619;29;20276;-79
2022/06/16 21:24:13;;;;;;;14.85;3.72;;;29.10;64.80;;;;;;4878304;29;20025;-79
2022/06/16 21:26:39;;;;;;;10.35;3.70;;;29.10;65.30;;;;;;4858556;29;20033;-79
2022/06/16 21:29:05;;;;;;;14.30;3.83;;;29.10;64.50;;;;;;4856647;29;20512;-80
2022/06/16 21:31:33;;;;;;;11.85;3.33;;;29.00;61.10;;;;;;4859622;29;20574;-79
2022/06/16 21:33:59;;;;;;;15.32;4.13;;;29.10;65.40;;;;;;4859197;29;20129;-79
2022/06/16 21:36:27;;;;;;;16.17;4.55;;;29.00;66.40;;;;;;4859989;29;20026;-79
2022/06/16 21:38:53;;;;;;;13.20;3.65;;;28.90;67.70;;;;;;4858815;29;20025;-79
2022/06/16 21:41:20;;;;;;;13.13;4.07;;;28.80;68.70;;;;;;4858889;29;20127;-79
2022/06/16 21:43:46;;;;;;;9.90;4.03;;;28.70;69.50;;;;;;4869533;29;20041;-79
2022/06/16 21:46:17;;;;;;;16.42;3.80;;;28.60;71.30;;;;;;4859741;29;20034;-80
2022/06/16 21:48:45;;;;;;;10.98;3.88;;;28.60;70.90;;;;;;4859633;29;20030;-79
2022/06/16 21:51:14;;;;;;;12.65;3.75;;;28.50;69.50;;;;;;4859724;29;20123;-79
2022/06/16 21:53:40;;;;;;;10.68;3.78;;;28.40;70.20;;;;;;4870414;29;20029;-79
2022/06/16 21:56:17;;;;;;;15.75;4.00;;;28.30;68.10;;;;;;4877912;29;20041;-79
2022/06/16 21:58:44;;;;;;;11.10;3.60;;;28.20;66.30;;;;;;4878217;29;20106;-80
2022/06/16 22:01:14;;;;;;;10.43;4.00;;;28.10;66.60;;;;;;4877812;29;20112;-79
2022/06/16 22:03:40;;;;;;;12.30;3.78;;;28.10;67.70;;;;;;4867363;29;20049;-79
2022/06/16 22:06:06;;;;;;;16.05;4.18;;;28.20;67.00;;;;;;4857593;29;20047;-80
2022/06/16 22:08:31;;;;;;;9.50;3.47;;;28.20;66.70;;;;;;4859679;29;20033;-79
2022/06/16 22:13:42;;;;;;;12.57;4.30;;;28.20;70.00;;;;;;4859437;29;20049;-79
2022/06/16 22:16:12;;;;;;;12.80;4.00;;;28.10;69.00;;;;;;4858201;29;20029;-79
2022/06/16 22:18:38;;;;;;;9.50;3.17;;;28.00;70.70;;;;;;4865978;29;20077;-79
2022/06/16 22:21:12;;;;;;;13.90;4.15;;;28.00;70.20;;;;;;4877887;29;20021;-79
2022/06/16 22:23:40;;;;;;;16.30;3.78;;;27.90;70.40;;;;;;4877710;29;20065;-80
2022/06/16 22:26:21;;;;;;;12.07;3.70;;;27.90;72.70;;;;;;4868545;29;20108;-79
2022/06/16 22:28:55;;;;;;;13.10;4.13;;;27.80;72.10;;;;;;4859078;29;20502;-79
2022/06/16 22:31:26;;;;;;;19.33;3.50;;;27.70;69.60;;;;;;4859738;29;20038;-80
2022/06/16 22:33:53;;;;;;;10.23;3.38;;;27.70;72.80;;;;;;4848265;29;20034;-80
2022/06/16 22:36:20;;;;;;;11.50;3.65;;;27.70;72.90;;;;;;4840836;29;20455;-79
2022/06/16 22:38:46;;;;;;;17.73;3.40;;;27.60;72.90;;;;;;4840715;29;20030;-80
2022/06/16 22:41:14;;;;;;;24.25;4.20;;;27.60;72.30;;;;;;4840192;29;20030;-79
2022/06/16 22:43:50;;;;;;;15.52;4.00;;;27.60;72.80;;;;;;4841156;29;20026;-80
2022/06/16 22:46:19;;;;;;;9.80;3.35;;;27.50;73.20;;;;;;4849352;29;20034;-79
2022/06/16 22:48:48;;;;;;;12.63;3.58;;;27.50;73.40;;;;;;4862509;29;20101;-80
2022/06/16 22:51:17;;;;;;;9.48;3.58;;;27.40;73.00;;;;;;4875223;29;20035;-78
2022/06/16 22:53:43;;;;;;;9.70;3.60;;;27.40;73.40;;;;;;4880586;29;20033;-79
2022/06/16 22:56:22;;;;;;;17.92;4.13;;;27.30;73.40;;;;;;4880154;29;20056;-79
2022/06/16 22:58:53;;;;;;;17.02;4.38;;;27.30;74.00;;;;;;4881134;29;20025;-79
2022/06/16 23:01:25;;;;;;;11.00;3.45;;;27.20;74.20;;;;;;4877667;29;20438;-79
2022/06/16 23:03:56;;;;;;;14.77;3.65;;;27.20;73.90;;;;;;4862194;29;20029;-80
2022/06/16 23:06:26;;;;;;;14.70;3.75;;;27.20;74.60;;;;;;4861823;29;20057;-79
2022/06/16 23:08:55;;;;;;;13.30;3.22;;;27.20;75.50;;;;;;4861615;29;20021;-79
2022/06/16 23:11:22;;;;;;;14.38;3.42;;;27.10;75.30;;;;;;4862145;29;20030;-79
2022/06/16 23:13:48;;;;;;;8.00;3.30;;;27.10;76.00;;;;;;4862080;29;20025;-79